Time;durP1;ratioP1;P1;durP2;ratioP2;P2;SDS_P1;SDS_P2;PMS_P1;PMS_P2;Temp;Humidity;BMP_temperature;BMP_pressure;BME280_temperature;BME280_humidity;BME280_pressure;Samples;Min_cycle;Max_cycle;Signal;HPM_P1;HPM_P2
2023/06/19 00:00:39;;;;;;;12.88;11.50;;;21.20;99.90;;;;;;5115614;27;20235;-39
2023/06/19 00:03:05;;;;;;;13.63;12.50;;;21.20;99.90;;;;;;5115084;27;20051;-39
2023/06/19 00:05:31;;;;;;;14.05;11.95;;;21.20;99.90;;;;;;5116457;27;20496;-40
2023/06/19 00:07:56;;;;;;;12.38;11.23;;;21.20;99.90;;;;;;5116302;27;20039;-39
2023/06/19 00:10:22;;;;;;;12.52;11.32;;;21.20;99.90;;;;;;5115544;27;20043;-40
2023/06/19 00:12:48;;;;;;;12.73;11.52;;;21.20;99.90;;;;;;5115748;27;20043;-39
2023/06/19 00:15:14;;;;;;;11.80;10.82;;;21.30;99.90;;;;;;5096416;27;20151;-39
2023/06/19 00:17:39;;;;;;;11.68;10.52;;;21.30;99.90;;;;;;5096629;27;20035;-39
2023/06/19 00:20:06;;;;;;;12.63;11.45;;;21.30;99.90;;;;;;5115480;27;20513;-39
2023/06/19 00:22:32;;;;;;;13.05;11.98;;;21.30;99.90;;;;;;5116015;27;20142;-40
2023/06/19 00:24:57;;;;;;;13.25;11.95;;;21.30;99.90;;;;;;5115356;27;20142;-39
2023/06/19 00:27:24;;;;;;;12.00;10.90;;;21.30;99.90;;;;;;5115366;27;20047;-39
2023/06/19 00:29:51;;;;;;;12.10;11.10;;;21.30;99.90;;;;;;5115286;27;20042;-39
2023/06/19 00:32:17;;;;;;;12.35;11.07;;;21.30;99.90;;;;;;5096905;27;20111;-39
2023/06/19 00:34:42;;;;;;;11.95;10.85;;;21.30;99.90;;;;;;5088447;28;20529;-39
2023/06/19 00:37:09;;;;;;;12.57;11.32;;;21.30;99.90;;;;;;5104511;27;20503;-39
2023/06/19 00:39:35;;;;;;;12.60;11.48;;;21.30;99.90;;;;;;5106641;27;20058;-40
2023/06/19 00:42:01;;;;;;;12.52;11.18;;;21.30;99.90;;;;;;5110260;27;20038;-39
2023/06/19 00:44:27;;;;;;;11.60;10.40;;;21.30;99.90;;;;;;5106258;27;20323;-39
2023/06/19 00:46:58;;;;;;;11.68;10.68;;;21.30;99.90;;;;;;5114815;27;20039;-39
2023/06/19 00:49:26;;;;;;;11.68;10.60;;;21.30;99.90;;;;;;5079365;27;20134;-39
2023/06/19 00:51:52;;;;;;;12.45;11.43;;;21.30;99.90;;;;;;5115448;27;20118;-39
2023/06/19 00:54:19;;;;;;;12.23;11.13;;;21.30;99.90;;;;;;5097010;27;20079;-39
2023/06/19 00:56:45;;;;;;;12.48;11.35;;;21.30;99.90;;;;;;5115938;27;20043;-39
2023/06/19 00:59:19;;;;;;;11.98;10.98;;;21.20;99.90;;;;;;5096069;27;20099;-39
2023/06/19 01:01:45;;;;;;;12.68;11.38;;;21.20;99.90;;;;;;5115149;27;20039;-39
2023/06/19 01:04:11;;;;;;;11.82;10.82;;;21.20;99.90;;;;;;5096667;27;20073;-39
2023/06/19 01:07:03;;;;;;;11.63;10.52;;;21.30;99.90;;;;;;5115202;27;20086;-39
2023/06/19 01:09:36;;;;;;;12.13;10.80;;;21.20;99.90;;;;;;5115371;27;20038;-39
2023/06/19 01:12:12;;;;;;;12.25;10.68;;;21.30;99.90;;;;;;5115401;27;20047;-39
2023/06/19 01:14:54;;;;;;;12.18;10.88;;;21.30;99.90;;;;;;5114387;27;20225;-39
2023/06/19 01:17:21;;;;;;;11.98;10.88;;;21.20;99.90;;;;;;5115062;27;20176;-39
2023/06/19 01:19:48;;;;;;;12.15;11.05;;;21.20;99.90;;;;;;5096101;28;20130;-39
2023/06/19 01:22:29;;;;;;;10.70;9.80;;;21.20;99.90;;;;;;5115247;27;20036;-39
2023/06/19 01:24:54;;;;;;;11.85;10.65;;;21.20;99.90;;;;;;5114780;27;20043;-39
2023/06/19 01:27:22;;;;;;;12.07;10.98;;;21.20;99.90;;;;;;5116375;27;20092;-39
2023/06/19 01:29:48;;;;;;;12.43;11.40;;;21.20;99.90;;;;;;5119664;27;20050;-40
2023/06/19 01:32:25;;;;;;;11.30;10.30;;;21.20;99.90;;;;;;5100911;27;20099;-39
2023/06/19 01:34:54;;;;;;;12.93;11.27;;;21.20;99.90;;;;;;5108957;27;20043;-39
2023/06/19 01:37:20;;;;;;;11.50;10.40;;;21.20;99.90;;;;;;5114211;27;20449;-39
2023/06/19 01:39:47;;;;;;;11.13;10.23;;;21.10;99.90;;;;;;5118649;27;20396;-39
2023/06/19 01:42:14;;;;;;;11.50;10.20;;;21.10;99.90;;;;;;5118607;27;20169;-39
2023/06/19 01:44:40;;;;;;;11.77;10.77;;;21.10;99.90;;;;;;5119136;27;20455;-39
2023/06/19 01:47:13;;;;;;;11.43;10.32;;;21.10;99.90;;;;;;5116256;27;20811;-39
2023/06/19 01:49:39;;;;;;;10.75;9.82;;;21.00;99.90;;;;;;5117236;27;20043;-39
2023/06/19 01:52:05;;;;;;;11.75;10.63;;;21.00;99.90;;;;;;5117930;27;20366;-39
2023/06/19 01:54:31;;;;;;;12.85;11.55;;;21.00;99.90;;;;;;5117183;27;20046;-39
2023/06/19 01:56:57;;;;;;;11.88;10.88;;;21.00;99.90;;;;;;5118176;27;20048;-40
2023/06/19 01:59:23;;;;;;;11.57;10.43;;;21.00;99.90;;;;;;5117279;27;20043;-39
2023/06/19 02:01:48;;;;;;;12.65;11.57;;;21.00;99.90;;;;;;5112709;27;20400;-39
2023/06/19 02:04:14;;;;;;;11.63;10.60;;;21.00;99.90;;;;;;5117491;27;20096;-39
2023/06/19 02:06:40;;;;;;;11.82;10.65;;;20.90;99.90;;;;;;5115663;27;20432;-39
2023/06/19 02:09:07;;;;;;;11.95;10.70;;;20.90;99.90;;;;;;5117408;27;20035;-39
2023/06/19 02:11:32;;;;;;;11.57;10.45;;;20.90;99.90;;;;;;5099158;27;20047;-39
2023/06/19 02:13:58;;;;;;;11.43;10.32;;;20.90;99.90;;;;;;5098800;27;20082;-39
2023/06/19 02:16:24;;;;;;;11.32;10.23;;;20.90;99.90;;;;;;5098434;27;20100;-39
2023/06/19 02:18:49;;;;;;;11.00;10.00;;;20.90;99.90;;;;;;5117681;27;20039;-39
2023/06/19 02:21:15;;;;;;;12.70;11.40;;;20.90;99.90;;;;;;5118347;27;20074;-39
2023/06/19 02:23:41;;;;;;;12.60;11.32;;;20.90;99.90;;;;;;5099110;27;20134;-39
2023/06/19 02:26:07;;;;;;;12.25;11.00;;;21.00;99.90;;;;;;5117259;27;20415;-39
2023/06/19 02:28:32;;;;;;;11.93;10.63;;;20.90;99.90;;;;;;5098246;27;20043;-39
2023/06/19 02:30:58;;;;;;;11.60;10.40;;;20.90;99.90;;;;;;5117265;27;20054;-40
2023/06/19 02:33:24;;;;;;;12.85;11.65;;;20.90;99.90;;;;;;5116821;27;20396;-39
2023/06/19 02:35:49;;;;;;;14.57;11.63;;;20.80;99.90;;;;;;5106975;27;20086;-39
2023/06/19 02:38:15;;;;;;;11.82;10.82;;;20.80;99.90;;;;;;5126952;27;20043;-39
2023/06/19 02:40:41;;;;;;;12.40;11.30;;;20.70;99.90;;;;;;5102637;27;20054;-39
2023/06/19 02:43:06;;;;;;;13.23;11.77;;;20.60;99.90;;;;;;5110400;27;20532;-39
2023/06/19 02:45:32;;;;;;;13.55;11.85;;;20.50;99.90;;;;;;5131878;27;20158;-39
2023/06/19 02:47:58;;;;;;;12.13;10.90;;;20.40;99.90;;;;;;5137983;27;20043;-39
2023/06/19 02:50:23;;;;;;;13.23;11.95;;;20.40;99.90;;;;;;5100412;27;20039;-39
2023/06/19 02:52:50;;;;;;;12.43;11.30;;;20.30;99.90;;;;;;5116373;27;20430;-39
2023/06/19 02:55:16;;;;;;;12.60;11.40;;;20.30;99.90;;;;;;5117012;27;20050;-39
2023/06/19 02:57:42;;;;;;;13.75;11.93;;;20.30;99.90;;;;;;5117076;27;20389;-39
2023/06/19 03:00:09;;;;;;;12.70;11.60;;;20.20;99.90;;;;;;5116049;27;20053;-39
2023/06/19 03:02:35;;;;;;;13.35;12.05;;;20.10;99.90;;;;;;5117511;27;20055;-39
2023/06/19 03:05:02;;;;;;;13.57;12.25;;;20.10;99.90;;;;;;5116294;27;20123;-39
2023/06/19 03:07:28;;;;;;;13.65;12.43;;;20.00;99.90;;;;;;5117389;27;20062;-40
2023/06/19 03:09:54;;;;;;;14.52;13.18;;;20.00;99.90;;;;;;5116242;27;20474;-39
2023/06/19 03:12:20;;;;;;;14.13;12.85;;;19.90;99.90;;;;;;5116750;27;20426;-39
2023/06/19 03:14:45;;;;;;;11.73;10.52;;;19.90;99.90;;;;;;5116273;27;20035;-39
2023/06/19 03:17:12;;;;;;;9.60;8.80;;;19.80;99.90;;;;;;5116599;27;20045;-39
2023/06/19 03:19:38;;;;;;;7.68;6.82;;;19.90;99.90;;;;;;5115868;27;20043;-39
2023/06/19 03:22:04;;;;;;;8.02;6.57;;;19.90;99.90;;;;;;5117037;27;20043;-39
2023/06/19 03:24:29;;;;;;;8.48;5.30;;;20.00;99.90;;;;;;5116240;27;20043;-39
2023/06/19 03:26:55;;;;;;;5.57;5.03;;;20.00;99.90;;;;;;5116410;27;20047;-39
2023/06/19 03:29:21;;;;;;;6.13;4.88;;;20.00;99.90;;;;;;5115842;27;20456;-39
2023/06/19 03:31:46;;;;;;;5.38;4.25;;;20.00;99.90;;;;;;5116915;27;20047;-39
2023/06/19 03:34:12;;;;;;;8.15;4.47;;;20.00;99.90;;;;;;5092157;28;20044;-39
2023/06/19 03:36:38;;;;;;;4.47;4.07;;;19.90;99.90;;;;;;5099973;27;20043;-39
2023/06/19 03:39:04;;;;;;;4.53;4.13;;;19.90;99.90;;;;;;5113308;27;20075;-39
2023/06/19 03:41:30;;;;;;;4.47;4.07;;;19.90;99.90;;;;;;5117717;27;20130;-39
2023/06/19 03:43:56;;;;;;;5.57;4.88;;;19.90;99.90;;;;;;5113343;27;20115;-39
2023/06/19 03:46:21;;;;;;;7.13;4.40;;;19.90;99.90;;;;;;5114642;27;20058;-39
2023/06/19 03:48:47;;;;;;;5.30;4.80;;;19.80;99.90;;;;;;5116726;27;20388;-39
2023/06/19 03:51:13;;;;;;;6.72;4.57;;;19.80;99.90;;;;;;5116436;27;20047;-39
2023/06/19 03:53:38;;;;;;;5.60;5.03;;;19.80;99.90;;;;;;5116041;27;20528;-39
2023/06/19 03:56:04;;;;;;;5.90;4.90;;;19.80;99.90;;;;;;5116285;27;20087;-39
2023/06/19 03:58:29;;;;;;;7.65;5.10;;;19.80;99.90;;;;;;5119921;27;20035;-39
2023/06/19 04:00:55;;;;;;;5.40;4.90;;;19.80;99.90;;;;;;5113489;27;20054;-39
2023/06/19 04:03:21;;;;;;;8.48;4.63;;;19.80;99.90;;;;;;5131417;27;20051;-39
2023/06/19 04:05:47;;;;;;;4.82;4.43;;;19.90;99.90;;;;;;5123618;27;20047;-39
2023/06/19 04:08:13;;;;;;;4.72;4.32;;;19.90;99.90;;;;;;5097026;27;20039;-39
2023/06/19 04:10:38;;;;;;;7.53;4.53;;;19.90;99.90;;;;;;5096118;27;20051;-39
2023/06/19 04:13:06;;;;;;;5.07;4.10;;;20.00;99.90;;;;;;5114667;27;20077;-39
2023/06/19 04:15:34;;;;;;;7.75;4.78;;;20.10;99.90;;;;;;5115788;27;20131;-39
2023/06/19 04:18:00;;;;;;;5.35;4.85;;;20.20;99.90;;;;;;5080554;27;20047;-39
2023/06/19 04:20:26;;;;;;;5.57;5.07;;;20.30;99.90;;;;;;5115108;27;20549;-39
2023/06/19 04:22:52;;;;;;;9.20;4.80;;;20.30;99.90;;;;;;5120218;27;20042;-39
2023/06/19 04:25:18;;;;;;;5.22;4.72;;;20.60;99.90;;;;;;5136675;27;20079;-39
2023/06/19 04:27:47;;;;;;;9.82;5.03;;;20.70;99.90;;;;;;5136436;27;20050;-39
2023/06/19 04:30:13;;;;;;;5.60;4.65;;;20.50;99.90;;;;;;5135555;27;20046;-39
2023/06/19 04:32:41;;;;;;;5.82;4.70;;;20.50;99.90;;;;;;5135214;27;20602;-39
2023/06/19 04:35:08;;;;;;;6.78;5.90;;;20.30;99.90;;;;;;5110786;27;20447;-39
2023/06/19 04:37:33;;;;;;;6.03;5.07;;;20.30;99.90;;;;;;5130936;27;20392;-39
2023/06/19 04:39:59;;;;;;;6.72;5.63;;;20.60;99.90;;;;;;5092584;27;20056;-39
2023/06/19 04:42:26;;;;;;;6.03;5.43;;;21.00;99.90;;;;;;5131361;27;20046;-39
2023/06/19 04:44:52;;;;;;;7.07;5.75;;;21.30;99.90;;;;;;5106658;27;20054;-39
2023/06/19 04:47:22;;;;;;;6.82;6.10;;;21.30;99.90;;;;;;5115683;27;20070;-39
2023/06/19 04:49:47;;;;;;;6.70;6.07;;;21.20;99.90;;;;;;5115058;27;20071;-39
2023/06/19 04:52:13;;;;;;;6.38;5.78;;;21.10;99.90;;;;;;5114468;27;20126;-39
2023/06/19 04:54:39;;;;;;;7.85;5.80;;;20.90;99.90;;;;;;5095872;27;20629;-39
2023/06/19 04:57:06;;;;;;;7.43;5.80;;;20.80;99.90;;;;;;5114626;27;20045;-40
2023/06/19 04:59:32;;;;;;;6.65;6.05;;;20.60;99.90;;;;;;5114531;27;20036;-39
2023/06/19 05:01:57;;;;;;;6.70;6.00;;;20.50;99.90;;;;;;5113864;27;20115;-39
2023/06/19 05:04:23;;;;;;;8.23;6.65;;;20.50;99.90;;;;;;5095537;27;20138;-39
2023/06/19 05:06:50;;;;;;;7.40;6.72;;;20.30;99.90;;;;;;5114825;27;20076;-39
2023/06/19 05:09:16;;;;;;;7.40;6.63;;;20.30;99.90;;;;;;5114499;27;20039;-39
2023/06/19 05:11:42;;;;;;;7.38;6.68;;;20.30;99.90;;;;;;5114278;27;20055;-39
2023/06/19 05:14:08;;;;;;;7.40;6.70;;;20.20;99.90;;;;;;5114118;27;20760;-39
2023/06/19 05:16:34;;;;;;;8.25;7.55;;;20.10;99.90;;;;;;5114757;27;20045;-39
2023/06/19 05:18:59;;;;;;;11.13;9.90;;;20.10;99.90;;;;;;5114314;27;20043;-39
2023/06/19 05:21:25;;;;;;;11.80;10.70;;;20.20;99.90;;;;;;5095981;28;20068;-39
2023/06/19 05:23:52;;;;;;;13.70;12.30;;;20.20;99.90;;;;;;5113914;27;20051;-40
2023/06/19 05:26:22;;;;;;;12.85;11.75;;;20.20;99.90;;;;;;5115121;27;20043;-40
2023/06/19 05:28:48;;;;;;;13.57;12.23;;;20.20;99.90;;;;;;5095425;28;20342;-40
2023/06/19 05:31:14;;;;;;;13.65;12.25;;;20.30;99.90;;;;;;5114953;27;20053;-39
2023/06/19 05:33:43;;;;;;;16.67;15.05;;;20.30;99.90;;;;;;5113403;27;20062;-39
2023/06/19 05:36:09;;;;;;;17.50;15.68;;;20.30;99.90;;;;;;5107223;27;20050;-40
2023/06/19 05:38:34;;;;;;;18.63;16.75;;;20.40;99.90;;;;;;5133305;27;20042;-39
2023/06/19 05:41:00;;;;;;;19.13;17.10;;;20.60;99.90;;;;;;5134611;27;20676;-40
2023/06/19 05:43:26;;;;;;;19.55;17.63;;;20.70;99.90;;;;;;5116107;27;20043;-39
2023/06/19 05:45:54;;;;;;;21.40;18.52;;;20.70;99.90;;;;;;5128270;27;20083;-39
2023/06/19 05:48:19;;;;;;;19.40;17.77;;;20.70;99.90;;;;;;5113194;27;20048;-39
2023/06/19 05:50:45;;;;;;;20.88;18.85;;;20.60;99.90;;;;;;5115023;27;20031;-39
2023/06/19 05:53:11;;;;;;;20.98;19.17;;;20.60;99.90;;;;;;5113612;27;20174;-40
2023/06/19 05:55:36;;;;;;;21.20;19.20;;;20.70;99.90;;;;;;5114638;27;20073;-39
2023/06/19 05:58:03;;;;;;;21.05;18.92;;;20.60;99.90;;;;;;5115450;27;20147;-40
2023/06/19 06:00:30;;;;;;;20.17;18.38;;;20.50;99.90;;;;;;5114603;27;20047;-39
2023/06/19 06:02:59;;;;;;;20.35;18.48;;;20.50;99.90;;;;;;5113778;27;20400;-40
2023/06/19 06:05:26;;;;;;;21.92;20.13;;;20.40;99.90;;;;;;5114136;27;20957;-39
2023/06/19 06:07:52;;;;;;;22.83;20.58;;;20.30;99.90;;;;;;5113388;27;20614;-40
2023/06/19 06:10:20;;;;;;;24.67;22.30;;;20.30;99.90;;;;;;5114017;27;20043;-39
2023/06/19 06:12:45;;;;;;;24.23;22.02;;;20.20;99.90;;;;;;5114469;27;20047;-40
2023/06/19 06:15:11;;;;;;;27.58;25.02;;;20.20;99.90;;;;;;5118517;27;20046;-39
2023/06/19 06:17:37;;;;;;;27.08;24.25;;;20.20;99.90;;;;;;5118283;27;20442;-39
2023/06/19 06:20:09;;;;;;;29.17;26.33;;;20.30;99.90;;;;;;5117542;27;20064;-40
2023/06/19 06:22:34;;;;;;;30.10;26.95;;;20.30;99.90;;;;;;5116790;27;20450;-40
2023/06/19 06:25:00;;;;;;;32.05;28.77;;;20.40;99.90;;;;;;5117605;27;20122;-40
2023/06/19 06:27:26;;;;;;;34.00;30.40;;;20.30;99.90;;;;;;5117467;27;20047;-39
2023/06/19 06:29:52;;;;;;;34.03;30.17;;;20.30;99.90;;;;;;5116764;27;20043;-39
2023/06/19 06:32:18;;;;;;;36.35;32.55;;;20.30;99.90;;;;;;5117579;27;20098;-39
2023/06/19 06:34:43;;;;;;;36.92;33.08;;;20.20;99.90;;;;;;5107166;27;20553;-40
2023/06/19 06:37:09;;;;;;;34.63;31.00;;;20.10;99.90;;;;;;5113492;27;20054;-40
2023/06/19 06:39:35;;;;;;;35.08;31.50;;;20.00;99.90;;;;;;5119936;27;20039;-40
2023/06/19 06:42:01;;;;;;;36.30;32.35;;;20.00;99.90;;;;;;5112426;27;20047;-39
2023/06/19 06:44:26;;;;;;;33.42;30.00;;;19.90;99.90;;;;;;5116259;27;20469;-40
2023/06/19 06:46:52;;;;;;;32.92;29.45;;;19.90;99.90;;;;;;5122550;27;20425;-39
2023/06/19 06:49:18;;;;;;;33.65;28.95;;;19.90;99.90;;;;;;5117346;27;20051;-39
2023/06/19 06:51:44;;;;;;;35.33;29.27;;;19.90;99.90;;;;;;5117526;27;20058;-39
2023/06/19 06:54:09;;;;;;;31.90;28.63;;;19.90;99.90;;;;;;5098163;27;20040;-40
2023/06/19 06:56:35;;;;;;;29.42;26.27;;;19.90;99.90;;;;;;5116879;27;20477;-39
2023/06/19 06:59:01;;;;;;;28.63;25.30;;;20.00;99.90;;;;;;5117431;27;20513;-39
2023/06/19 07:01:27;;;;;;;30.00;26.02;;;20.00;99.90;;;;;;5117357;27;20283;-40
2023/06/19 07:03:53;;;;;;;29.50;25.40;;;20.00;99.90;;;;;;5117127;27;20043;-39
2023/06/19 07:06:19;;;;;;;28.38;24.20;;;20.10;99.90;;;;;;5116630;27;20542;-40
2023/06/19 07:08:47;;;;;;;26.02;23.35;;;20.10;99.90;;;;;;5117192;27;20043;-40
2023/06/19 07:11:13;;;;;;;27.65;23.25;;;20.10;99.90;;;;;;5116703;27;20561;-40
2023/06/19 07:13:41;;;;;;;24.35;21.30;;;20.10;99.90;;;;;;5098387;27;20793;-39
2023/06/19 07:16:07;;;;;;;23.23;20.65;;;20.10;99.90;;;;;;5117116;27;20208;-40
2023/06/19 07:18:34;;;;;;;23.40;19.60;;;20.10;99.90;;;;;;5116616;27;20047;-39
2023/06/19 07:21:01;;;;;;;22.30;19.00;;;20.10;99.90;;;;;;5116911;27;20125;-39
2023/06/19 07:23:27;;;;;;;20.45;18.40;;;20.10;99.90;;;;;;5097384;27;20167;-39
2023/06/19 07:25:52;;;;;;;20.13;17.80;;;20.10;99.90;;;;;;5096858;27;20580;-39
2023/06/19 07:28:18;;;;;;;21.98;19.65;;;20.10;99.90;;;;;;5116509;27;20043;-39
2023/06/19 07:30:45;;;;;;;24.92;22.35;;;20.00;99.90;;;;;;5117264;27;20047;-40
2023/06/19 07:33:10;;;;;;;22.80;20.23;;;19.90;99.90;;;;;;5115738;27;20481;-39
2023/06/19 07:35:36;;;;;;;21.80;19.58;;;19.80;99.90;;;;;;5085760;27;20081;-40
2023/06/19 07:38:01;;;;;;;21.40;19.20;;;19.80;99.90;;;;;;5122313;27;20046;-39
2023/06/19 07:40:27;;;;;;;22.00;19.63;;;19.80;99.90;;;;;;5078935;27;20067;-39
2023/06/19 07:42:53;;;;;;;19.00;17.00;;;19.80;99.90;;;;;;5110695;27;20112;-40
2023/06/19 07:45:18;;;;;;;22.52;16.30;;;19.80;99.90;;;;;;5115020;27;20134;-39
2023/06/19 07:47:53;;;;;;;18.10;16.25;;;19.80;99.90;;;;;;5072899;28;20047;-39
2023/06/19 07:50:18;;;;;;;17.20;15.38;;;19.80;99.90;;;;;;5111182;27;20573;-39
2023/06/19 07:52:44;;;;;;;17.95;14.50;;;19.80;99.90;;;;;;5114762;27;20565;-39
2023/06/19 07:55:10;;;;;;;17.30;14.30;;;19.70;99.90;;;;;;5114617;27;20043;-39
2023/06/19 07:57:36;;;;;;;19.63;15.45;;;19.70;99.90;;;;;;5115924;27;20483;-39
2023/06/19 08:00:07;;;;;;;13.70;11.93;;;19.70;99.90;;;;;;5115373;27;20342;-39
2023/06/19 08:02:32;;;;;;;15.95;13.05;;;19.70;99.90;;;;;;5115901;27;20430;-39
2023/06/19 08:04:58;;;;;;;16.00;12.82;;;19.70;99.90;;;;;;5097835;27;20096;-39
2023/06/19 08:07:24;;;;;;;13.82;11.43;;;19.70;99.90;;;;;;5115709;27;20043;-39
2023/06/19 08:09:49;;;;;;;12.25;11.05;;;19.70;99.90;;;;;;5115299;27;20395;-40
2023/06/19 08:12:15;;;;;;;14.65;10.75;;;19.70;99.90;;;;;;5115806;27;20043;-39
2023/06/19 08:14:41;;;;;;;11.77;10.57;;;19.70;99.90;;;;;;5097084;27;20470;-38
2023/06/19 08:17:06;;;;;;;11.82;10.63;;;19.80;99.90;;;;;;5115266;27;20050;-38
2023/06/19 08:19:32;;;;;;;14.55;10.90;;;19.80;99.90;;;;;;5096369;27;20393;-38
2023/06/19 08:21:58;;;;;;;17.23;11.13;;;19.80;99.90;;;;;;5115538;27;20097;-39
2023/06/19 08:24:24;;;;;;;14.63;10.45;;;19.90;99.90;;;;;;5114487;27;20046;-39
2023/06/19 08:26:51;;;;;;;14.82;11.00;;;20.00;99.90;;;;;;5115492;27;20126;-39
2023/06/19 08:29:18;;;;;;;12.07;10.88;;;19.90;99.90;;;;;;5114787;27;20064;-39
2023/06/19 08:31:43;;;;;;;12.32;11.05;;;20.00;99.90;;;;;;5097081;27;20519;-39
2023/06/19 08:34:10;;;;;;;11.48;10.38;;;20.00;99.90;;;;;;5110507;27;20040;-38
2023/06/19 08:36:36;;;;;;;13.57;12.27;;;20.00;99.90;;;;;;5115480;27;20500;-39
2023/06/19 08:39:02;;;;;;;12.73;11.27;;;20.10;99.90;;;;;;5113695;27;20047;-39
2023/06/19 08:41:28;;;;;;;11.88;10.40;;;20.20;99.90;;;;;;5111687;27;20043;-39
2023/06/19 08:43:54;;;;;;;13.60;11.48;;;20.30;99.90;;;;;;5097238;27;20109;-39
2023/06/19 08:46:20;;;;;;;13.18;11.90;;;20.30;99.90;;;;;;5115134;27;20751;-38
2023/06/19 08:48:46;;;;;;;14.52;12.98;;;20.40;99.90;;;;;;5083410;27;20035;-39
2023/06/19 08:51:13;;;;;;;14.68;13.32;;;20.40;99.90;;;;;;5104135;27;20169;-39
2023/06/19 08:53:50;;;;;;;14.63;13.25;;;20.40;99.90;;;;;;5112693;27;20054;-38
2023/06/19 08:56:16;;;;;;;16.92;15.32;;;20.40;99.90;;;;;;5113173;27;20058;-39
2023/06/19 08:58:42;;;;;;;14.63;13.25;;;20.40;99.90;;;;;;5105318;27;20036;-38
2023/06/19 09:01:08;;;;;;;16.35;14.75;;;20.40;99.90;;;;;;5094365;27;20452;-39
2023/06/19 09:03:34;;;;;;;17.25;15.65;;;20.30;99.90;;;;;;5093407;27;20972;-39
2023/06/19 09:06:06;;;;;;;16.27;14.75;;;20.20;99.90;;;;;;5076056;28;20140;-39
2023/06/19 09:08:31;;;;;;;19.33;14.60;;;20.20;99.90;;;;;;5085228;28;20055;-39
2023/06/19 09:11:03;;;;;;;16.15;14.60;;;20.20;99.90;;;;;;5092663;27;20071;-38
2023/06/19 09:13:30;;;;;;;16.35;14.75;;;20.10;99.90;;;;;;5104507;27;20331;-38
2023/06/19 09:16:00;;;;;;;16.55;14.88;;;20.10;99.90;;;;;;5113522;27;20043;-39
2023/06/19 09:18:26;;;;;;;15.75;14.32;;;20.20;99.90;;;;;;5109717;27;20038;-39
2023/06/19 09:20:53;;;;;;;17.27;14.90;;;20.20;99.90;;;;;;5113280;27;20047;-39
2023/06/19 09:23:19;;;;;;;17.38;15.82;;;20.30;99.90;;;;;;5112079;27;20047;-39
2023/06/19 09:25:56;;;;;;;16.25;14.75;;;20.30;99.90;;;;;;5114185;27;20075;-39
2023/06/19 09:28:28;;;;;;;17.30;15.80;;;20.30;99.90;;;;;;5113682;27;20455;-39
2023/06/19 09:31:02;;;;;;;18.92;17.17;;;20.30;99.90;;;;;;5113741;27;20039;-39
2023/06/19 09:33:29;;;;;;;17.83;16.23;;;20.20;99.90;;;;;;5094826;28;20493;-39
2023/06/19 09:35:57;;;;;;;19.05;17.08;;;20.20;99.90;;;;;;5088252;27;20067;-39
2023/06/19 09:38:28;;;;;;;18.60;16.77;;;20.20;99.90;;;;;;5133966;27;20050;-39
2023/06/19 09:40:55;;;;;;;19.10;17.27;;;20.20;99.90;;;;;;5107422;27;20042;-39
2023/06/19 09:43:37;;;;;;;18.85;16.92;;;20.20;99.90;;;;;;5117120;27;20475;-39
2023/06/19 09:46:04;;;;;;;22.20;17.25;;;20.30;99.90;;;;;;5083110;28;20035;-39
2023/06/19 09:48:32;;;;;;;19.42;17.45;;;20.30;99.90;;;;;;5114342;27;20038;-39
2023/06/19 09:51:19;;;;;;;19.40;17.70;;;20.50;99.90;;;;;;5117993;27;20074;-40
2023/06/19 09:53:46;;;;;;;19.95;18.15;;;20.70;99.90;;;;;;5099069;27;20374;-41
2023/06/19 09:56:15;;;;;;;19.60;17.70;;;20.80;99.90;;;;;;5117928;27;20061;-39
2023/06/19 09:58:43;;;;;;;21.02;17.55;;;20.90;99.90;;;;;;5123311;27;20041;-40
2023/06/19 10:01:09;;;;;;;17.92;16.08;;;20.90;99.90;;;;;;5139122;27;20039;-39
2023/06/19 10:03:36;;;;;;;18.45;16.58;;;21.00;99.90;;;;;;5138057;27;20046;-39
2023/06/19 10:06:03;;;;;;;19.38;15.48;;;21.00;99.90;;;;;;5138774;27;20373;-39
2023/06/19 10:08:39;;;;;;;17.38;15.60;;;21.10;99.90;;;;;;5137634;27;20073;-39
2023/06/19 10:11:05;;;;;;;18.90;17.17;;;21.10;99.90;;;;;;5138956;27;20051;-39
2023/06/19 10:13:33;;;;;;;19.92;17.90;;;21.20;99.90;;;;;;5114313;27;20397;-39
2023/06/19 10:15:59;;;;;;;19.30;17.33;;;21.40;99.90;;;;;;5107486;27;20130;-39
2023/06/19 10:18:26;;;;;;;19.83;17.30;;;21.40;99.90;;;;;;5103260;27;20036;-39
2023/06/19 10:20:53;;;;;;;22.48;17.63;;;21.50;99.90;;;;;;5078878;27;20078;-39
2023/06/19 10:23:23;;;;;;;19.75;17.65;;;21.60;99.90;;;;;;5111301;27;20050;-39
2023/06/19 10:25:58;;;;;;;18.35;16.45;;;21.70;99.90;;;;;;5116973;27;20043;-39
2023/06/19 10:28:29;;;;;;;21.35;18.83;;;21.70;99.90;;;;;;5115809;27;20393;-39
2023/06/19 10:30:58;;;;;;;21.02;18.80;;;21.60;99.90;;;;;;5113958;27;20103;-39
2023/06/19 10:33:26;;;;;;;20.50;18.40;;;21.60;99.90;;;;;;5090552;27;20423;-39
2023/06/19 10:35:52;;;;;;;19.95;17.70;;;21.50;99.90;;;;;;5112815;27;20700;-39
2023/06/19 10:38:18;;;;;;;19.88;17.98;;;21.40;99.90;;;;;;5097727;27;20051;-39
2023/06/19 10:40:45;;;;;;;20.48;18.50;;;21.40;99.90;;;;;;5110401;27;20050;-40
2023/06/19 10:43:11;;;;;;;20.08;18.17;;;21.40;99.90;;;;;;5107879;27;20116;-39
2023/06/19 10:45:37;;;;;;;20.15;18.05;;;21.50;99.90;;;;;;5107486;27;20698;-39
2023/06/19 10:48:04;;;;;;;21.05;19.05;;;21.60;99.90;;;;;;5114946;27;20050;-39
2023/06/19 10:50:41;;;;;;;22.58;20.20;;;21.70;99.90;;;;;;5111339;27;20112;-39
2023/06/19 10:53:07;;;;;;;19.80;17.88;;;21.90;99.90;;;;;;5116464;27;20478;-39
2023/06/19 10:55:33;;;;;;;24.00;19.83;;;22.20;99.90;;;;;;5098725;27;20043;-39
2023/06/19 10:57:58;;;;;;;22.50;20.30;;;22.40;99.90;;;;;;5096641;27;20043;-40
2023/06/19 11:00:33;;;;;;;22.08;19.77;;;22.60;99.90;;;;;;5095089;27;20393;-39
2023/06/19 11:02:59;;;;;;;22.33;20.15;;;22.70;99.90;;;;;;5096004;27;20803;-39
2023/06/19 11:05:27;;;;;;;21.83;19.63;;;22.90;99.90;;;;;;5116643;27;20039;-39
2023/06/19 11:07:58;;;;;;;23.02;19.15;;;23.00;99.90;;;;;;5115220;27;20532;-40
2023/06/19 11:10:27;;;;;;;25.17;22.45;;;23.00;99.90;;;;;;5115780;27;20542;-40
2023/06/19 11:12:57;;;;;;;21.70;19.00;;;22.80;99.90;;;;;;5115908;27;20051;-39
2023/06/19 11:15:29;;;;;;;22.10;17.63;;;22.70;99.90;;;;;;5115881;27;20048;-39
2023/06/19 11:17:55;;;;;;;;;;;22.80;99.90;;;;;;5115948;27;20047;-40
2023/06/19 11:20:21;;;;;;;19.63;17.63;;;22.80;99.90;;;;;;5115587;27;20420;-39
2023/06/19 11:22:47;;;;;;;20.38;17.17;;;22.90;99.90;;;;;;5115973;27;20130;-39
2023/06/19 11:25:13;;;;;;;19.63;17.92;;;23.10;99.90;;;;;;5075933;27;20063;-39
2023/06/19 11:27:39;;;;;;;19.08;17.05;;;23.30;99.90;;;;;;5114690;27;20167;-39
2023/06/19 11:30:07;;;;;;;20.38;18.38;;;23.50;99.90;;;;;;5128349;27;20047;-39
2023/06/19 11:32:41;;;;;;;28.35;18.70;;;23.60;99.90;;;;;;5136521;27;20031;-39
2023/06/19 11:35:11;;;;;;;19.70;17.48;;;23.60;99.90;;;;;;5093584;27;20047;-40
2023/06/19 11:37:41;;;;;;;19.48;17.48;;;23.70;99.90;;;;;;5132309;27;20043;-39
2023/06/19 11:40:12;;;;;;;18.77;16.88;;;23.90;99.90;;;;;;5137747;27;20043;-40
2023/06/19 11:42:49;;;;;;;17.20;15.50;;;23.90;99.90;;;;;;5111933;27;20484;-40
2023/06/19 11:45:15;;;;;;;17.65;15.80;;;23.90;99.90;;;;;;5116229;27;20043;-40
2023/06/19 11:47:40;;;;;;;20.42;18.38;;;23.70;99.90;;;;;;5114822;27;20039;-40
2023/06/19 11:50:07;;;;;;;19.23;15.77;;;23.60;99.90;;;;;;5117650;27;20418;-40
2023/06/19 11:52:33;;;;;;;20.30;18.13;;;23.80;99.90;;;;;;5082382;27;20503;-40
2023/06/19 11:54:58;;;;;;;17.60;14.98;;;23.80;99.90;;;;;;5130430;27;20054;-40
2023/06/19 11:57:26;;;;;;;16.58;14.90;;;24.00;99.90;;;;;;5136277;27;20129;-40
2023/06/19 11:59:51;;;;;;;16.52;14.82;;;24.10;99.90;;;;;;5110613;27;20069;-40
2023/06/19 12:02:17;;;;;;;17.77;15.35;;;24.10;99.90;;;;;;5117172;27;20770;-40
2023/06/19 12:04:43;;;;;;;17.80;16.00;;;24.20;99.90;;;;;;5101217;27;20126;-40
2023/06/19 12:07:09;;;;;;;16.85;15.25;;;24.30;99.90;;;;;;5113346;27;20066;-40
2023/06/19 12:09:35;;;;;;;16.75;15.15;;;24.20;99.90;;;;;;5118258;27;20088;-40
2023/06/19 12:12:01;;;;;;;16.92;15.13;;;24.10;99.90;;;;;;5132743;27;20083;-40
2023/06/19 12:14:27;;;;;;;29.08;15.63;;;24.20;99.90;;;;;;5119577;27;20455;-40
2023/06/19 12:16:52;;;;;;;17.67;15.15;;;24.30;99.90;;;;;;5117616;27;20042;-40
2023/06/19 12:19:18;;;;;;;15.85;14.38;;;24.30;99.90;;;;;;5119063;27;20054;-40
2023/06/19 12:21:44;;;;;;;31.65;17.67;;;24.50;99.90;;;;;;5118166;27;20467;-40
2023/06/19 12:24:09;;;;;;;25.20;16.42;;;24.50;99.90;;;;;;5114755;27;20151;-40
2023/06/19 12:26:36;;;;;;;33.90;17.25;;;24.50;99.90;;;;;;5080725;27;20073;-40
2023/06/19 12:29:06;;;;;;;32.58;18.88;;;24.70;99.90;;;;;;5115810;27;20050;-40